createdAt,value
2022-11-27T00:01:27.698Z,19.27
2022-11-27T00:03:55.798Z,18.60
2022-11-27T00:06:27.697Z,19.13
2022-11-27T00:08:57.762Z,17.85
2022-11-27T00:11:26.055Z,15.68
2022-11-27T00:13:52.982Z,13.65
2022-11-27T00:16:21.058Z,13.98
2022-11-27T00:18:48.338Z,15.82
2022-11-27T00:21:22.494Z,17.30
2022-11-27T00:23:49.963Z,18.15
2022-11-27T00:26:16.524Z,14.00
2022-11-27T00:28:43.092Z,16.58
2022-11-27T00:31:17.145Z,15.75
2022-11-27T00:33:44.169Z,14.43
2022-11-27T00:36:12.712Z,16.23
2022-11-27T00:38:39.503Z,15.75
2022-11-27T00:41:20.860Z,14.82
2022-11-27T00:43:47.869Z,19.48
2022-11-27T00:46:16.377Z,17.25
2022-11-27T00:48:43.515Z,15.20
2022-11-27T00:51:13.724Z,14.40
2022-11-27T00:53:40.514Z,14.82
2022-11-27T00:56:07.956Z,13.15
2022-11-27T00:58:34.879Z,11.15
2022-11-27T01:01:08.958Z,10.43
2022-11-27T01:03:35.821Z,10.98
2022-11-27T01:06:06.969Z,9.95
2022-11-27T01:08:34.685Z,10.30
2022-11-27T01:11:01.897Z,10.00
2022-11-27T01:13:31.557Z,8.23
2022-11-27T01:16:03.228Z,7.65
2022-11-27T01:18:30.094Z,8.45
2022-11-27T01:20:57.532Z,7.07
2022-11-27T01:23:24.543Z,6.93
2022-11-27T01:25:53.382Z,7.78
2022-11-27T01:28:21.874Z,7.50
2022-11-27T01:30:48.690Z,8.70
2022-11-27T01:33:18.729Z,8.55
2022-11-27T01:36:01.037Z,6.57
2022-11-27T01:38:29.269Z,7.45
2022-11-27T01:41:08.265Z,8.55
2022-11-27T01:43:50.905Z,9.10
2022-11-27T01:46:35.501Z,8.23
2022-11-27T01:49:09.455Z,11.50
2022-11-27T01:51:50.586Z,10.77
2022-11-27T01:54:19.139Z,12.90
2022-11-27T01:56:50.187Z,10.40
2022-11-27T01:59:18.141Z,8.45
2022-11-27T02:01:44.804Z,9.20
2022-11-27T02:04:11.854Z,10.38
2022-11-27T02:06:38.573Z,10.88
2022-11-27T02:09:05.149Z,11.95
2022-11-27T02:11:42.813Z,11.52
2022-11-27T02:14:38.035Z,15.15
2022-11-27T02:17:09.752Z,12.05
2022-11-27T02:19:54.219Z,12.15
2022-11-27T02:22:57.958Z,11.07
2022-11-27T02:25:39.794Z,11.13
2022-11-27T02:28:29.912Z,10.40
2022-11-27T02:31:29.167Z,11.20
2022-11-27T02:34:07.353Z,9.13
2022-11-27T02:36:35.473Z,9.52
2022-11-27T02:39:14.740Z,9.10
2022-11-27T02:41:53.244Z,8.82
2022-11-27T02:44:22.720Z,9.77
2022-11-27T02:46:52.654Z,7.95
2022-11-27T02:49:20.722Z,8.68
2022-11-27T02:51:57.107Z,8.60
2022-11-27T02:54:27.950Z,8.20
2022-11-27T02:56:57.367Z,9.68
2022-11-27T02:59:26.652Z,8.30
2022-11-27T03:02:01.383Z,7.43
2022-11-27T03:04:37.810Z,7.95
2022-11-27T03:07:14.780Z,7.78
2022-11-27T03:09:48.387Z,8.43
2022-11-27T03:14:47.119Z,7.38
2022-11-27T03:17:31.978Z,8.88
2022-11-27T03:20:34.992Z,7.63
2022-11-27T03:23:01.581Z,7.68
2022-11-27T03:25:28.749Z,8.15
2022-11-27T03:28:08.164Z,8.55
2022-11-27T03:30:34.699Z,8.10
2022-11-27T03:33:02.167Z,7.82
2022-11-27T03:35:29.500Z,8.48
2022-11-27T03:37:56.808Z,8.63
2022-11-27T03:40:35.501Z,8.00
2022-11-27T03:43:09.843Z,8.13
2022-11-27T03:45:45.686Z,7.57
2022-11-27T03:48:21.073Z,8.10
2022-11-27T03:51:09.520Z,8.40
2022-11-27T03:54:00.915Z,8.77
2022-11-27T03:56:53.408Z,7.60
2022-11-27T03:59:26.264Z,8.23
2022-11-27T04:01:52.949Z,8.27
2022-11-27T04:04:19.640Z,8.50
2022-11-27T04:06:46.323Z,8.77
2022-11-27T04:09:12.863Z,9.13
2022-11-27T04:11:39.398Z,9.20
2022-11-27T04:14:06.091Z,8.98
2022-11-27T04:16:32.835Z,9.48
2022-11-27T04:18:59.432Z,9.07
2022-11-27T04:21:28.178Z,9.85
2022-11-27T04:23:54.680Z,9.57
2022-11-27T04:26:21.241Z,10.30
2022-11-27T04:28:48.017Z,9.82
2022-11-27T04:31:14.704Z,10.60
2022-11-27T04:33:43.704Z,10.10
2022-11-27T04:36:10.390Z,9.68
2022-11-27T04:38:36.979Z,9.77
2022-11-27T04:41:03.558Z,9.63
2022-11-27T04:43:30.091Z,9.15
2022-11-27T04:45:56.785Z,9.65
2022-11-27T04:48:23.347Z,9.85
2022-11-27T04:50:49.879Z,9.93
2022-11-27T04:53:16.353Z,9.60
2022-11-27T04:55:42.877Z,10.05
2022-11-27T04:58:09.393Z,10.30
2022-11-27T05:00:36.201Z,10.15
2022-11-27T05:03:02.784Z,9.25
2022-11-27T05:05:29.428Z,8.98
2022-11-27T05:07:58.289Z,8.77
2022-11-27T05:10:24.921Z,9.77
2022-11-27T05:12:51.463Z,9.50
2022-11-27T05:15:18.027Z,10.00
2022-11-27T05:17:44.603Z,9.93
2022-11-27T05:20:11.512Z,9.68
2022-11-27T05:22:38.154Z,10.73
2022-11-27T05:25:04.945Z,8.95
2022-11-27T05:27:31.540Z,8.98
2022-11-27T05:29:58.126Z,10.10
2022-11-27T05:32:25.075Z,8.55
2022-11-27T05:34:51.632Z,8.27
2022-11-27T05:37:20.005Z,8.07
2022-11-27T05:39:46.832Z,8.90
2022-11-27T05:42:13.394Z,8.25
2022-11-27T05:44:40.071Z,8.25
2022-11-27T05:47:07.012Z,8.43
2022-11-27T05:49:33.716Z,8.60
2022-11-27T05:52:00.221Z,9.43
2022-11-27T05:54:26.909Z,9.00
2022-11-27T05:56:53.451Z,8.68
2022-11-27T05:59:20.187Z,9.02
2022-11-27T06:01:49.471Z,8.52
2022-11-27T06:04:16.321Z,8.48
2022-11-27T06:06:42.811Z,9.35
2022-11-27T06:09:12.839Z,8.52
2022-11-27T06:11:40.567Z,8.40
2022-11-27T06:14:09.105Z,9.10
2022-11-27T06:16:36.386Z,8.80
2022-11-27T06:19:03.433Z,8.40
2022-11-27T06:21:29.976Z,8.73
2022-11-27T06:23:57.181Z,8.23
2022-11-27T06:26:29.375Z,9.45
2022-11-27T06:28:57.311Z,8.32
2022-11-27T06:31:28.631Z,9.60
2022-11-27T06:33:58.834Z,8.43
2022-11-27T06:36:32.500Z,8.75
2022-11-27T06:41:27.196Z,7.65
2022-11-27T06:43:55.032Z,9.10
2022-11-27T06:46:23.472Z,8.93
2022-11-27T06:48:51.860Z,16.88
2022-11-27T06:51:26.780Z,14.57
2022-11-27T06:53:53.728Z,11.20
2022-11-27T06:56:23.880Z,11.75
2022-11-27T06:58:55.676Z,9.52
2022-11-27T07:01:24.236Z,12.57
2022-11-27T07:03:51.258Z,13.60
2022-11-27T07:06:20.788Z,8.77
2022-11-27T07:08:47.752Z,8.10
2022-11-27T07:11:20.009Z,7.68
2022-11-27T07:13:48.145Z,7.35
2022-11-27T07:16:15.680Z,7.40
2022-11-27T07:18:44.977Z,8.00
2022-11-27T07:21:12.409Z,8.35
2022-11-27T07:23:39.354Z,7.55
2022-11-27T07:26:08.477Z,8.20
2022-11-27T07:28:35.732Z,8.32
2022-11-27T07:31:02.548Z,7.45
2022-11-27T07:33:29.122Z,7.88
2022-11-27T07:36:16.453Z,7.93
2022-11-27T07:38:43.667Z,8.48
2022-11-27T07:41:10.536Z,7.60
2022-11-27T07:43:37.355Z,7.78
2022-11-27T07:46:08.207Z,7.45
2022-11-27T07:48:37.671Z,7.90
2022-11-27T07:51:09.074Z,8.27
2022-11-27T07:53:37.576Z,7.22
2022-11-27T07:56:09.908Z,8.07
2022-11-27T07:58:36.888Z,7.28
2022-11-27T08:01:12.184Z,7.63
2022-11-27T08:03:39.524Z,8.40
2022-11-27T08:06:14.710Z,7.97
2022-11-27T08:08:41.591Z,8.63
2022-11-27T08:11:25.124Z,9.00
2022-11-27T08:13:57.239Z,9.50
2022-11-27T08:16:27.312Z,9.40
2022-11-27T08:18:53.975Z,8.35
2022-11-27T08:21:20.562Z,8.82
2022-11-27T08:23:47.325Z,9.38
2022-11-27T08:26:14.705Z,8.68
2022-11-27T08:28:42.218Z,8.82
2022-11-27T08:31:11.423Z,10.45
2022-11-27T08:33:38.340Z,8.85
2022-11-27T08:36:08.186Z,8.27
2022-11-27T08:38:36.427Z,10.07
2022-11-27T08:41:05.003Z,9.40
2022-11-27T08:43:32.211Z,9.13
2022-11-27T08:46:01.624Z,9.45
2022-11-27T08:48:28.441Z,10.35
2022-11-27T08:50:57.442Z,10.55
2022-11-27T08:53:24.060Z,10.13
2022-11-27T08:55:50.611Z,10.82
2022-11-27T08:58:17.147Z,10.82
2022-11-27T09:00:43.845Z,10.38
2022-11-27T09:03:12.383Z,10.73
2022-11-27T09:05:44.675Z,10.52
2022-11-27T09:08:13.552Z,11.23
2022-11-27T09:10:40.148Z,10.25
2022-11-27T09:13:06.663Z,12.23
2022-11-27T09:15:33.354Z,11.45
2022-11-27T09:17:59.927Z,11.02
2022-11-27T09:20:26.538Z,10.05
2022-11-27T09:22:53.082Z,11.02
2022-11-27T09:25:19.721Z,10.88
2022-11-27T09:27:46.304Z,17.05
2022-11-27T09:30:13.449Z,11.85
2022-11-27T09:32:40.042Z,11.10
2022-11-27T09:35:09.413Z,11.10
2022-11-27T09:37:36.041Z,10.77
2022-11-27T09:40:02.679Z,11.68
2022-11-27T09:42:53.578Z,10.48
2022-11-27T09:45:22.373Z,10.52
2022-11-27T09:47:52.888Z,11.02
2022-11-27T09:50:25.839Z,11.15
2022-11-27T09:52:55.045Z,11.23
2022-11-27T09:55:24.877Z,11.95
2022-11-27T09:58:16.292Z,10.75
2022-11-27T10:00:47.645Z,10.65
2022-11-27T10:03:18.672Z,11.02
2022-11-27T10:06:22.232Z,10.93
2022-11-27T10:08:55.741Z,11.55
2022-11-27T10:11:25.160Z,11.93
2022-11-27T10:14:20.976Z,11.63
2022-11-27T10:16:51.334Z,11.60
2022-11-27T10:19:41.761Z,11.45
2022-11-27T10:22:25.402Z,12.00
2022-11-27T10:24:55.303Z,11.25
2022-11-27T10:27:41.161Z,12.30
2022-11-27T10:30:20.954Z,11.90
2022-11-27T10:32:55.992Z,12.52
2022-11-27T10:35:33.101Z,12.57
2022-11-27T10:38:15.094Z,10.77
2022-11-27T10:41:47.708Z,11.40
2022-11-27T10:44:22.064Z,11.52
2022-11-27T10:46:51.160Z,11.68
2022-11-27T10:49:17.766Z,10.23
2022-11-27T10:51:44.394Z,11.00
2022-11-27T10:54:22.225Z,10.35
2022-11-27T10:57:04.111Z,10.88
2022-11-27T10:59:37.525Z,11.05
2022-11-27T11:02:05.737Z,11.77
2022-11-27T11:04:40.198Z,12.02
2022-11-27T11:07:28.330Z,10.90
2022-11-27T11:09:55.300Z,11.52
2022-11-27T11:12:23.776Z,11.10
2022-11-27T11:15:01.708Z,10.48
2022-11-27T11:17:34.785Z,11.13
2022-11-27T11:20:18.892Z,10.15
2022-11-27T11:25:20.081Z,9.48
2022-11-27T11:27:48.332Z,9.30
2022-11-27T11:30:23.018Z,10.02
2022-11-27T11:32:51.264Z,9.70
2022-11-27T11:35:44.344Z,10.13
2022-11-27T11:38:22.090Z,9.85
2022-11-27T11:41:04.735Z,10.27
2022-11-27T11:43:36.334Z,12.00
2022-11-27T11:46:22.837Z,11.63
2022-11-27T11:49:25.033Z,10.00
2022-11-27T11:52:23.634Z,11.35
2022-11-27T11:55:08.949Z,9.07
2022-11-27T11:57:38.530Z,10.35
2022-11-27T12:00:11.652Z,9.60
2022-11-27T12:03:06.297Z,7.90
2022-11-27T12:05:54.574Z,7.63
2022-11-27T12:08:49.152Z,7.32
2022-11-27T12:11:17.025Z,7.20
2022-11-27T12:14:11.433Z,6.93
2022-11-27T12:16:59.053Z,6.90
2022-11-27T12:19:37.886Z,6.88
2022-11-27T12:22:16.765Z,8.77
2022-11-27T12:25:25.185Z,8.27
2022-11-27T12:27:57.670Z,7.20
2022-11-27T12:30:32.820Z,7.22
2022-11-27T12:33:19.280Z,7.40
2022-11-27T12:35:56.455Z,7.43
2022-11-27T12:39:09.634Z,7.25
2022-11-27T12:41:51.270Z,7.72
2022-11-27T12:44:44.573Z,8.55
2022-11-27T12:47:27.016Z,7.57
2022-11-27T12:50:02.945Z,8.35
2022-11-27T12:52:40.746Z,8.63
2022-11-27T12:55:21.424Z,8.07
2022-11-27T12:57:52.872Z,9.27
2022-11-27T13:00:23.214Z,8.93
2022-11-27T13:03:15.064Z,10.45
2022-11-27T13:05:52.645Z,9.45
2022-11-27T13:08:23.324Z,9.98
2022-11-27T13:10:56.902Z,12.45
2022-11-27T13:13:32.698Z,14.00
2022-11-27T13:16:05.581Z,18.35
2022-11-27T13:18:47.086Z,21.42
2022-11-27T13:21:22.997Z,15.95
2022-11-27T13:23:51.097Z,12.63
2022-11-27T13:26:33.349Z,14.32
2022-11-27T13:29:04.105Z,18.13
2022-11-27T13:31:39.265Z,18.88
2022-11-27T13:34:18.417Z,18.70
2022-11-27T13:36:48.378Z,15.07
2022-11-27T13:39:33.515Z,17.83
2022-11-27T13:42:11.002Z,20.20
2022-11-27T13:44:42.718Z,11.90
2022-11-27T13:47:16.473Z,14.80
2022-11-27T13:49:43.532Z,12.43
2022-11-27T13:52:19.101Z,15.57
2022-11-27T13:55:00.489Z,22.38
2022-11-27T13:57:29.616Z,27.10
2022-11-27T14:00:11.603Z,14.15
2022-11-27T14:02:46.892Z,14.93
2022-11-27T14:05:16.733Z,15.82
2022-11-27T14:07:52.426Z,16.02
2022-11-27T14:10:23.384Z,16.08
2022-11-27T14:13:03.531Z,17.83
2022-11-27T14:15:33.232Z,14.88
2022-11-27T14:18:17.069Z,17.50
2022-11-27T14:20:56.751Z,22.48
2022-11-27T14:23:29.407Z,27.13
2022-11-27T14:26:20.666Z,23.48
2022-11-27T14:28:54.370Z,27.65
2022-11-27T14:34:16.888Z,27.13
2022-11-27T14:36:45.328Z,27.35
2022-11-27T14:39:31.229Z,28.88
2022-11-27T14:42:05.538Z,24.20
2022-11-27T14:44:32.950Z,15.95
2022-11-27T14:47:03.450Z,14.38
2022-11-27T14:49:32.090Z,13.43
2022-11-27T14:52:06.940Z,13.45
2022-11-27T14:54:37.612Z,17.23
2022-11-27T14:57:05.524Z,16.35
2022-11-27T14:59:32.405Z,17.60
2022-11-27T15:02:15.437Z,14.45
2022-11-27T15:04:44.292Z,12.70
2022-11-27T15:07:18.342Z,13.85
2022-11-27T15:09:48.845Z,13.68
2022-11-27T15:12:18.838Z,14.55
2022-11-27T15:14:57.629Z,13.70
2022-11-27T15:17:28.462Z,15.52
2022-11-27T15:19:57.457Z,18.55
2022-11-27T15:22:24.458Z,16.58
2022-11-27T15:25:02.016Z,17.52
2022-11-27T15:27:31.759Z,24.20
2022-11-27T15:30:11.787Z,20.02
2022-11-27T15:32:51.387Z,16.70
2022-11-27T15:35:30.048Z,15.90
2022-11-27T15:37:57.830Z,17.20
2022-11-27T15:40:36.423Z,17.05
2022-11-27T15:43:06.530Z,15.55
2022-11-27T15:45:33.330Z,14.38
2022-11-27T15:48:01.315Z,13.88
2022-11-27T15:50:30.653Z,15.52
2022-11-27T15:52:57.761Z,27.17
2022-11-27T15:55:24.414Z,26.48
2022-11-27T15:57:53.464Z,16.88
2022-11-27T16:00:22.108Z,15.32
2022-11-27T16:02:48.587Z,13.52
2022-11-27T16:05:17.447Z,13.75
2022-11-27T16:07:43.923Z,17.25
2022-11-27T16:10:11.099Z,44.92
2022-11-27T16:12:38.927Z,64.85
2022-11-27T16:15:07.674Z,135.48
2022-11-27T16:17:34.546Z,249.43
2022-11-27T16:20:01.039Z,148.10
2022-11-27T16:22:27.560Z,49.08
2022-11-27T16:24:54.017Z,79.30
2022-11-27T16:27:22.756Z,39.20
2022-11-27T16:29:51.908Z,24.55
2022-11-27T16:32:18.379Z,21.27
2022-11-27T16:34:47.136Z,22.88
2022-11-27T16:37:18.259Z,11.93
2022-11-27T16:39:45.304Z,14.57
2022-11-27T16:42:11.801Z,11.88
2022-11-27T16:44:38.332Z,12.18
2022-11-27T16:47:05.220Z,12.55
2022-11-27T16:49:31.733Z,12.00
2022-11-27T16:51:58.326Z,12.65
2022-11-27T16:54:24.789Z,10.63
2022-11-27T16:56:51.881Z,19.20
2022-11-27T16:59:18.328Z,13.18
2022-11-27T17:01:45.274Z,14.02
2022-11-27T17:04:18.311Z,15.60
2022-11-27T17:06:45.755Z,15.07
2022-11-27T17:09:12.855Z,12.90
2022-11-27T17:11:43.185Z,12.70
2022-11-27T17:14:10.592Z,12.88
2022-11-27T17:16:42.593Z,13.85
2022-11-27T17:19:15.856Z,12.88
2022-11-27T17:21:42.394Z,12.18
2022-11-27T17:24:15.484Z,11.05
2022-11-27T17:26:44.046Z,11.07
2022-11-27T17:29:11.965Z,11.60
2022-11-27T17:31:41.761Z,12.98
2022-11-27T17:34:11.949Z,14.02
2022-11-27T17:36:38.997Z,13.45
2022-11-27T17:39:06.379Z,16.55
2022-11-27T17:41:33.460Z,15.07
2022-11-27T17:44:00.430Z,14.93
2022-11-27T17:46:30.693Z,14.93
2022-11-27T17:49:00.158Z,13.48
2022-11-27T17:51:31.727Z,13.93
2022-11-27T17:54:02.734Z,13.77
2022-11-27T17:56:29.539Z,15.82
2022-11-27T17:58:56.024Z,23.20
2022-11-27T18:01:25.690Z,19.25
2022-11-27T18:03:55.649Z,28.80
2022-11-27T18:06:25.462Z,27.15
2022-11-27T18:08:52.332Z,26.50
2022-11-27T18:11:21.594Z,19.25
2022-11-27T18:13:49.617Z,31.23
2022-11-27T18:16:22.937Z,19.67
2022-11-27T18:18:50.036Z,21.67
2022-11-27T18:21:19.379Z,23.42
2022-11-27T18:24:21.316Z,22.88
2022-11-27T18:27:00.543Z,18.83
2022-11-27T18:29:21.888Z,19.50
2022-11-27T18:31:49.959Z,19.77
2022-11-27T18:34:16.545Z,20.13
2022-11-27T18:36:43.139Z,20.23
2022-11-27T18:39:09.698Z,36.15
2022-11-27T18:41:38.981Z,24.55
2022-11-27T18:44:08.543Z,25.80
2022-11-27T18:46:35.244Z,35.65
2022-11-27T18:49:01.967Z,18.48
2022-11-27T18:51:28.553Z,17.70
2022-11-27T18:53:56.599Z,56.00
2022-11-27T18:56:26.044Z,19.77
2022-11-27T18:58:54.033Z,18.40
2022-11-27T19:01:26.425Z,32.33
2022-11-27T19:03:53.369Z,23.75
2022-11-27T19:06:21.915Z,16.33
2022-11-27T19:08:48.704Z,18.45
2022-11-27T19:11:22.757Z,17.33
2022-11-27T19:13:51.117Z,16.98
2022-11-27T19:16:20.632Z,18.55
2022-11-27T19:18:47.615Z,20.80
2022-11-27T19:21:17.563Z,22.70
2022-11-27T19:23:44.609Z,22.58
2022-11-27T19:26:16.254Z,19.73
2022-11-27T19:28:43.518Z,19.98
2022-11-27T19:31:13.138Z,24.17
2022-11-27T19:33:40.118Z,22.60
2022-11-27T19:36:12.550Z,27.17
2022-11-27T19:38:44.940Z,24.60
2022-11-27T19:41:14.048Z,23.23
2022-11-27T19:43:40.884Z,20.73
2022-11-27T19:46:34.808Z,29.05
2022-11-27T19:49:06.615Z,21.88
2022-11-27T19:51:37.816Z,22.80
2022-11-27T19:54:10.582Z,31.95
2022-11-27T19:56:39.745Z,28.77
2022-11-27T19:59:09.460Z,32.13
2022-11-27T20:01:38.017Z,18.92
2022-11-27T20:04:07.916Z,16.20
2022-11-27T20:06:37.150Z,15.60
2022-11-27T20:09:05.314Z,35.25
2022-11-27T20:11:35.656Z,212.45
2022-11-27T20:14:04.289Z,144.80
2022-11-27T20:16:32.148Z,127.88
2022-11-27T20:18:58.782Z,190.07
2022-11-27T20:21:26.049Z,67.97
2022-11-27T20:23:54.239Z,22.85
2022-11-27T20:26:23.592Z,44.05
2022-11-27T20:28:53.826Z,27.27
2022-11-27T20:31:24.234Z,26.98
2022-11-27T20:33:55.969Z,28.05
2022-11-27T20:36:24.104Z,21.23
2022-11-27T20:38:51.166Z,19.17
2022-11-27T20:41:20.278Z,18.02
2022-11-27T20:43:47.380Z,18.90
2022-11-27T20:46:15.579Z,23.30
2022-11-27T20:48:45.305Z,20.23
2022-11-27T20:51:16.786Z,27.42
2022-11-27T20:53:48.550Z,25.10
2022-11-27T20:56:16.752Z,27.83
2022-11-27T20:58:50.724Z,28.55
2022-11-27T21:01:29.649Z,34.72
2022-11-27T21:03:58.064Z,27.77
2022-11-27T21:06:28.293Z,24.85
2022-11-27T21:08:55.515Z,38.10
2022-11-27T21:11:26.984Z,23.50
2022-11-27T21:14:01.890Z,31.30
2022-11-27T21:16:34.226Z,34.08
2022-11-27T21:19:06.216Z,29.23
2022-11-27T21:21:33.366Z,28.83
2022-11-27T21:24:00.353Z,30.00
2022-11-27T21:26:27.168Z,21.50
2022-11-27T21:28:53.658Z,18.60
2022-11-27T21:31:23.604Z,18.20
2022-11-27T21:33:55.893Z,16.10
2022-11-27T21:36:25.648Z,15.43
2022-11-27T21:38:54.365Z,16.15
2022-11-27T21:41:24.212Z,15.80
2022-11-27T21:43:55.186Z,14.07
2022-11-27T21:46:25.004Z,13.35
2022-11-27T21:48:55.619Z,13.63
2022-11-27T21:51:23.037Z,13.00
2022-11-27T21:53:51.433Z,12.43
2022-11-27T21:56:20.072Z,12.88
2022-11-27T21:58:46.967Z,13.13
2022-11-27T22:01:18.259Z,13.15
2022-11-27T22:03:47.589Z,15.80
2022-11-27T22:06:17.809Z,14.32
2022-11-27T22:08:46.437Z,15.07
2022-11-27T22:11:21.867Z,14.77
2022-11-27T22:13:48.619Z,13.52
2022-11-27T22:16:20.460Z,11.75
2022-11-27T22:18:48.242Z,12.02
2022-11-27T22:21:15.986Z,14.88
2022-11-27T22:23:43.587Z,12.68
2022-11-27T22:26:15.735Z,13.38
2022-11-27T22:28:42.931Z,11.85
2022-11-27T22:31:13.013Z,12.85
2022-11-27T22:33:41.217Z,11.43
2022-11-27T22:36:20.929Z,12.20
2022-11-27T22:38:51.653Z,11.95
2022-11-27T22:41:20.207Z,10.52
2022-11-27T22:43:46.741Z,10.85
2022-11-27T22:46:29.384Z,14.20
2022-11-27T22:48:58.220Z,12.02
2022-11-27T22:51:26.452Z,11.65
2022-11-27T22:53:53.163Z,13.48
2022-11-27T22:56:19.856Z,12.20
2022-11-27T22:58:46.395Z,11.48
2022-11-27T23:01:19.425Z,10.93
2022-11-27T23:03:46.070Z,10.88
2022-11-27T23:06:16.679Z,11.10
2022-11-27T23:08:47.398Z,11.13
2022-11-27T23:11:22.279Z,11.13
2022-11-27T23:13:51.452Z,11.30
2022-11-27T23:16:18.872Z,11.25
2022-11-27T23:18:46.232Z,10.43
2022-11-27T23:21:18.175Z,10.77
2022-11-27T23:23:45.504Z,10.70
2022-11-27T23:26:18.168Z,10.52
2022-11-27T23:28:51.286Z,10.63
2022-11-27T23:31:30.429Z,11.43
2022-11-27T23:33:59.269Z,10.82
2022-11-27T23:36:25.890Z,10.88
2022-11-27T23:38:52.416Z,10.85
2022-11-27T23:41:25.324Z,11.45
2022-11-27T23:43:53.446Z,10.57
2022-11-27T23:46:26.122Z,11.60
2022-11-27T23:48:54.764Z,11.20
2022-11-27T23:51:24.586Z,10.77
2022-11-27T23:53:51.514Z,12.50
2022-11-27T23:56:21.297Z,11.95
2022-11-27T23:58:48.032Z,11.45
